sensor_id;sensor_type;location;lat;lon;timestamp;P1;durP1;ratioP1;P2;durP2;ratioP2
5591;SDS011;2818;49.790;9.958;2022-08-16T00:01:19;3.00;;;2.80;;
5591;SDS011;2818;49.790;9.958;2022-08-16T00:03:50;5.03;;;2.57;;
5591;SDS011;2818;49.790;9.958;2022-08-16T00:06:19;3.10;;;2.90;;
5591;SDS011;2818;49.790;9.958;2022-08-16T00:08:47;2.87;;;2.70;;
5591;SDS011;2818;49.790;9.958;2022-08-16T00:11:18;3.30;;;3.10;;
5591;SDS011;2818;49.790;9.958;2022-08-16T00:13:47;2.97;;;2.87;;
5591;SDS011;2818;49.790;9.958;2022-08-16T00:16:25;2.97;;;2.83;;
5591;SDS011;2818;49.790;9.958;2022-08-16T00:19:14;3.13;;;2.80;;
5591;SDS011;2818;49.790;9.958;2022-08-16T00:21:44;3.20;;;3.00;;
5591;SDS011;2818;49.790;9.958;2022-08-16T00:24:18;3.07;;;2.97;;
5591;SDS011;2818;49.790;9.958;2022-08-16T00:27:00;5.30;;;3.43;;
5591;SDS011;2818;49.790;9.958;2022-08-16T00:29:29;7.07;;;3.00;;
5591;SDS011;2818;49.790;9.958;2022-08-16T00:31:58;2.70;;;2.50;;
5591;SDS011;2818;49.790;9.958;2022-08-16T00:34:32;2.80;;;2.70;;
5591;SDS011;2818;49.790;9.958;2022-08-16T00:37:17;2.87;;;2.77;;
5591;SDS011;2818;49.790;9.958;2022-08-16T00:39:46;2.93;;;2.83;;
5591;SDS011;2818;49.790;9.958;2022-08-16T00:42:25;3.00;;;2.90;;
5591;SDS011;2818;49.790;9.958;2022-08-16T00:45:17;3.20;;;3.00;;
5591;SDS011;2818;49.790;9.958;2022-08-16T00:48:25;7.00;;;3.10;;
5591;SDS011;2818;49.790;9.958;2022-08-16T00:50:57;2.97;;;2.77;;
5591;SDS011;2818;49.790;9.958;2022-08-16T00:53:25;4.23;;;3.70;;
5591;SDS011;2818;49.790;9.958;2022-08-16T00:55:57;3.07;;;2.90;;
5591;SDS011;2818;49.790;9.958;2022-08-16T00:58:31;3.60;;;3.40;;
5591;SDS011;2818;49.790;9.958;2022-08-16T01:01:03;3.30;;;3.20;;
5591;SDS011;2818;49.790;9.958;2022-08-16T01:03:33;2.70;;;2.60;;
5591;SDS011;2818;49.790;9.958;2022-08-16T01:06:07;3.27;;;2.97;;
5591;SDS011;2818;49.790;9.958;2022-08-16T01:08:55;3.00;;;2.90;;
5591;SDS011;2818;49.790;9.958;2022-08-16T01:11:26;3.50;;;3.30;;
5591;SDS011;2818;49.790;9.958;2022-08-16T01:13:55;3.13;;;2.97;;
5591;SDS011;2818;49.790;9.958;2022-08-16T01:16:51;3.13;;;3.03;;
5591;SDS011;2818;49.790;9.958;2022-08-16T01:19:23;2.97;;;2.87;;
5591;SDS011;2818;49.790;9.958;2022-08-16T01:24:47;3.17;;;3.07;;
5591;SDS011;2818;49.790;9.958;2022-08-16T01:27:22;3.17;;;3.07;;
5591;SDS011;2818;49.790;9.958;2022-08-16T01:30:03;3.50;;;3.30;;
5591;SDS011;2818;49.790;9.958;2022-08-16T01:32:47;3.20;;;2.90;;
5591;SDS011;2818;49.790;9.958;2022-08-16T01:35:29;3.50;;;3.20;;
5591;SDS011;2818;49.790;9.958;2022-08-16T01:38:24;3.50;;;3.30;;
5591;SDS011;2818;49.790;9.958;2022-08-16T01:41:02;2.90;;;2.70;;
5591;SDS011;2818;49.790;9.958;2022-08-16T01:43:44;3.50;;;3.20;;
5591;SDS011;2818;49.790;9.958;2022-08-16T01:46:24;3.50;;;3.30;;
5591;SDS011;2818;49.790;9.958;2022-08-16T01:49:09;2.70;;;2.60;;
5591;SDS011;2818;49.790;9.958;2022-08-16T01:51:40;3.80;;;3.13;;
5591;SDS011;2818;49.790;9.958;2022-08-16T01:54:09;3.53;;;3.20;;
5591;SDS011;2818;49.790;9.958;2022-08-16T01:56:40;3.13;;;2.93;;
5591;SDS011;2818;49.790;9.958;2022-08-16T01:59:09;3.03;;;2.93;;
5591;SDS011;2818;49.790;9.958;2022-08-16T02:01:41;3.60;;;3.40;;
5591;SDS011;2818;49.790;9.958;2022-08-16T02:04:15;3.27;;;3.07;;
5591;SDS011;2818;49.790;9.958;2022-08-16T02:07:07;4.03;;;2.80;;
5591;SDS011;2818;49.790;9.958;2022-08-16T02:09:39;3.17;;;3.00;;
5591;SDS011;2818;49.790;9.958;2022-08-16T02:12:07;3.10;;;3.00;;
5591;SDS011;2818;49.790;9.958;2022-08-16T02:14:55;3.10;;;3.00;;
5591;SDS011;2818;49.790;9.958;2022-08-16T02:17:24;3.27;;;3.17;;
5591;SDS011;2818;49.790;9.958;2022-08-16T02:19:53;3.60;;;3.50;;
5591;SDS011;2818;49.790;9.958;2022-08-16T02:22:25;3.37;;;3.20;;
5591;SDS011;2818;49.790;9.958;2022-08-16T02:25:10;2.70;;;2.60;;
5591;SDS011;2818;49.790;9.958;2022-08-16T02:27:41;3.63;;;3.23;;
5591;SDS011;2818;49.790;9.958;2022-08-16T02:30:17;3.23;;;3.13;;
5591;SDS011;2818;49.790;9.958;2022-08-16T02:33:08;3.10;;;3.00;;
5591;SDS011;2818;49.790;9.958;2022-08-16T02:35:37;3.70;;;3.40;;
5591;SDS011;2818;49.790;9.958;2022-08-16T02:38:23;3.03;;;2.90;;
5591;SDS011;2818;49.790;9.958;2022-08-16T02:40:51;3.27;;;3.17;;
5591;SDS011;2818;49.790;9.958;2022-08-16T02:43:20;3.20;;;3.00;;
5591;SDS011;2818;49.790;9.958;2022-08-16T02:45:52;3.27;;;3.00;;
5591;SDS011;2818;49.790;9.958;2022-08-16T02:48:19;3.20;;;3.10;;
5591;SDS011;2818;49.790;9.958;2022-08-16T02:50:57;3.47;;;3.30;;
5591;SDS011;2818;49.790;9.958;2022-08-16T02:53:37;3.47;;;3.37;;
5591;SDS011;2818;49.790;9.958;2022-08-16T02:56:09;3.27;;;3.17;;
5591;SDS011;2818;49.790;9.958;2022-08-16T02:58:40;3.63;;;3.33;;
5591;SDS011;2818;49.790;9.958;2022-08-16T03:01:10;3.20;;;3.00;;
5591;SDS011;2818;49.790;9.958;2022-08-16T03:03:50;3.10;;;3.00;;
5591;SDS011;2818;49.790;9.958;2022-08-16T03:06:41;3.07;;;2.97;;
5591;SDS011;2818;49.790;9.958;2022-08-16T03:09:08;3.70;;;3.60;;
5591;SDS011;2818;49.790;9.958;2022-08-16T03:11:40;5.63;;;3.23;;
5591;SDS011;2818;49.790;9.958;2022-08-16T03:14:07;4.23;;;3.83;;
5591;SDS011;2818;49.790;9.958;2022-08-16T03:16:36;3.50;;;3.30;;
5591;SDS011;2818;49.790;9.958;2022-08-16T03:19:24;3.60;;;3.40;;
5591;SDS011;2818;49.790;9.958;2022-08-16T03:22:11;3.27;;;3.07;;
5591;SDS011;2818;49.790;9.958;2022-08-16T03:24:55;3.43;;;3.20;;
5591;SDS011;2818;49.790;9.958;2022-08-16T03:27:27;3.07;;;2.97;;
5591;SDS011;2818;49.790;9.958;2022-08-16T03:29:58;5.47;;;2.90;;
5591;SDS011;2818;49.790;9.958;2022-08-16T03:32:43;3.60;;;3.30;;
5591;SDS011;2818;49.790;9.958;2022-08-16T03:35:13;8.20;;;7.50;;
5591;SDS011;2818;49.790;9.958;2022-08-16T03:37:43;3.23;;;3.13;;
5591;SDS011;2818;49.790;9.958;2022-08-16T03:40:28;4.07;;;3.87;;
5591;SDS011;2818;49.790;9.958;2022-08-16T03:42:59;3.67;;;3.40;;
5591;SDS011;2818;49.790;9.958;2022-08-16T03:45:46;3.87;;;3.57;;
5591;SDS011;2818;49.790;9.958;2022-08-16T03:48:18;3.73;;;3.63;;
5591;SDS011;2818;49.790;9.958;2022-08-16T03:51:03;3.43;;;3.13;;
5591;SDS011;2818;49.790;9.958;2022-08-16T03:53:33;3.97;;;3.70;;
5591;SDS011;2818;49.790;9.958;2022-08-16T03:56:03;4.27;;;4.00;;
5591;SDS011;2818;49.790;9.958;2022-08-16T03:58:43;3.20;;;3.00;;
5591;SDS011;2818;49.790;9.958;2022-08-16T04:01:13;3.93;;;3.73;;
5591;SDS011;2818;49.790;9.958;2022-08-16T04:03:41;3.53;;;3.27;;
5591;SDS011;2818;49.790;9.958;2022-08-16T04:06:09;3.60;;;3.40;;
5591;SDS011;2818;49.790;9.958;2022-08-16T04:08:36;3.87;;;3.67;;
5591;SDS011;2818;49.790;9.958;2022-08-16T04:11:04;3.87;;;3.67;;
5591;SDS011;2818;49.790;9.958;2022-08-16T04:13:32;4.43;;;4.13;;
5591;SDS011;2818;49.790;9.958;2022-08-16T04:16:19;4.03;;;3.77;;
5591;SDS011;2818;49.790;9.958;2022-08-16T04:18:53;3.83;;;3.63;;
5591;SDS011;2818;49.790;9.958;2022-08-16T04:21:28;4.60;;;3.73;;
5591;SDS011;2818;49.790;9.958;2022-08-16T04:23:57;3.70;;;3.40;;
5591;SDS011;2818;49.790;9.958;2022-08-16T04:26:25;4.03;;;3.83;;
5591;SDS011;2818;49.790;9.958;2022-08-16T04:29:00;4.33;;;4.13;;
5591;SDS011;2818;49.790;9.958;2022-08-16T04:31:48;4.10;;;3.90;;
5591;SDS011;2818;49.790;9.958;2022-08-16T04:34:23;4.00;;;3.70;;
5591;SDS011;2818;49.790;9.958;2022-08-16T04:36:55;4.17;;;4.03;;
5591;SDS011;2818;49.790;9.958;2022-08-16T04:39:27;3.80;;;3.60;;
5591;SDS011;2818;49.790;9.958;2022-08-16T04:42:15;4.80;;;3.80;;
5591;SDS011;2818;49.790;9.958;2022-08-16T04:44:51;4.00;;;3.60;;
5591;SDS011;2818;49.790;9.958;2022-08-16T04:47:25;4.30;;;3.90;;
5591;SDS011;2818;49.790;9.958;2022-08-16T04:49:58;4.07;;;3.77;;
5591;SDS011;2818;49.790;9.958;2022-08-16T04:52:27;4.10;;;3.90;;
5591;SDS011;2818;49.790;9.958;2022-08-16T04:55:05;4.30;;;4.10;;
5591;SDS011;2818;49.790;9.958;2022-08-16T04:57:37;4.30;;;3.97;;
5591;SDS011;2818;49.790;9.958;2022-08-16T05:00:10;4.70;;;4.30;;
5591;SDS011;2818;49.790;9.958;2022-08-16T05:03:00;4.33;;;3.93;;
5591;SDS011;2818;49.790;9.958;2022-08-16T05:05:34;4.33;;;3.93;;
5591;SDS011;2818;49.790;9.958;2022-08-16T05:08:10;4.40;;;4.10;;
5591;SDS011;2818;49.790;9.958;2022-08-16T05:10:55;4.70;;;4.30;;
5591;SDS011;2818;49.790;9.958;2022-08-16T05:13:25;4.43;;;4.03;;
5591;SDS011;2818;49.790;9.958;2022-08-16T05:16:06;4.60;;;4.40;;
5591;SDS011;2818;49.790;9.958;2022-08-16T05:18:55;4.70;;;4.20;;
5591;SDS011;2818;49.790;9.958;2022-08-16T05:21:25;4.50;;;4.20;;
5591;SDS011;2818;49.790;9.958;2022-08-16T05:24:04;4.00;;;3.80;;
5591;SDS011;2818;49.790;9.958;2022-08-16T05:26:32;4.70;;;4.40;;
5591;SDS011;2818;49.790;9.958;2022-08-16T05:29:01;4.40;;;4.20;;
5591;SDS011;2818;49.790;9.958;2022-08-16T05:31:30;7.77;;;4.50;;
5591;SDS011;2818;49.790;9.958;2022-08-16T05:33:58;4.17;;;3.80;;
5591;SDS011;2818;49.790;9.958;2022-08-16T05:36:29;4.97;;;4.20;;
5591;SDS011;2818;49.790;9.958;2022-08-16T05:39:02;4.50;;;4.10;;
5591;SDS011;2818;49.790;9.958;2022-08-16T05:41:35;5.33;;;4.50;;
5591;SDS011;2818;49.790;9.958;2022-08-16T05:44:12;4.33;;;4.03;;
5591;SDS011;2818;49.790;9.958;2022-08-16T05:46:53;4.27;;;4.07;;
5591;SDS011;2818;49.790;9.958;2022-08-16T05:49:26;9.00;;;4.40;;
5591;SDS011;2818;49.790;9.958;2022-08-16T05:52:04;4.50;;;4.23;;
5591;SDS011;2818;49.790;9.958;2022-08-16T05:54:38;5.07;;;4.57;;
5591;SDS011;2818;49.790;9.958;2022-08-16T05:57:13;4.50;;;4.10;;
5591;SDS011;2818;49.790;9.958;2022-08-16T05:59:43;4.80;;;4.50;;
5591;SDS011;2818;49.790;9.958;2022-08-16T06:02:24;5.93;;;5.00;;
5591;SDS011;2818;49.790;9.958;2022-08-16T06:04:58;8.23;;;5.10;;
5591;SDS011;2818;49.790;9.958;2022-08-16T06:07:27;4.93;;;4.67;;
5591;SDS011;2818;49.790;9.958;2022-08-16T06:09:57;7.20;;;5.00;;
5591;SDS011;2818;49.790;9.958;2022-08-16T06:12:26;7.00;;;5.10;;
5591;SDS011;2818;49.790;9.958;2022-08-16T06:14:59;6.53;;;4.43;;
5591;SDS011;2818;49.790;9.958;2022-08-16T06:17:35;7.53;;;5.17;;
5591;SDS011;2818;49.790;9.958;2022-08-16T06:20:10;5.27;;;4.83;;
5591;SDS011;2818;49.790;9.958;2022-08-16T06:22:50;7.43;;;4.70;;
5591;SDS011;2818;49.790;9.958;2022-08-16T06:25:27;6.47;;;5.07;;
5591;SDS011;2818;49.790;9.958;2022-08-16T06:28:04;4.83;;;4.40;;
5591;SDS011;2818;49.790;9.958;2022-08-16T06:30:35;4.97;;;4.63;;
5591;SDS011;2818;49.790;9.958;2022-08-16T06:33:11;5.43;;;5.03;;
5591;SDS011;2818;49.790;9.958;2022-08-16T06:35:48;8.17;;;4.93;;
5591;SDS011;2818;49.790;9.958;2022-08-16T06:38:23;5.20;;;4.87;;
5591;SDS011;2818;49.790;9.958;2022-08-16T06:41:00;7.40;;;4.87;;
5591;SDS011;2818;49.790;9.958;2022-08-16T06:43:29;5.13;;;4.70;;
5591;SDS011;2818;49.790;9.958;2022-08-16T06:45:57;5.73;;;5.33;;
5591;SDS011;2818;49.790;9.958;2022-08-16T06:48:28;5.07;;;4.67;;
5591;SDS011;2818;49.790;9.958;2022-08-16T06:50:59;7.90;;;4.93;;
5591;SDS011;2818;49.790;9.958;2022-08-16T06:53:31;5.20;;;4.80;;
5591;SDS011;2818;49.790;9.958;2022-08-16T06:56:01;7.80;;;4.93;;
5591;SDS011;2818;49.790;9.958;2022-08-16T06:58:48;6.17;;;5.77;;
5591;SDS011;2818;49.790;9.958;2022-08-16T07:01:16;6.00;;;5.33;;
5591;SDS011;2818;49.790;9.958;2022-08-16T07:04:04;5.40;;;4.90;;
5591;SDS011;2818;49.790;9.958;2022-08-16T07:06:37;5.47;;;5.07;;
5591;SDS011;2818;49.790;9.958;2022-08-16T07:09:09;5.40;;;5.10;;
5591;SDS011;2818;49.790;9.958;2022-08-16T07:11:37;6.03;;;5.43;;
5591;SDS011;2818;49.790;9.958;2022-08-16T07:14:13;6.30;;;5.93;;
5591;SDS011;2818;49.790;9.958;2022-08-16T07:16:50;5.97;;;5.60;;
5591;SDS011;2818;49.790;9.958;2022-08-16T07:19:18;6.40;;;5.80;;
5591;SDS011;2818;49.790;9.958;2022-08-16T07:21:45;5.40;;;5.10;;
5591;SDS011;2818;49.790;9.958;2022-08-16T07:24:25;6.30;;;5.63;;
5591;SDS011;2818;49.790;9.958;2022-08-16T07:26:56;6.23;;;5.63;;
5591;SDS011;2818;49.790;9.958;2022-08-16T07:29:26;5.77;;;5.47;;
5591;SDS011;2818;49.790;9.958;2022-08-16T07:31:57;9.33;;;5.50;;
5591;SDS011;2818;49.790;9.958;2022-08-16T07:34:26;6.60;;;6.20;;
5591;SDS011;2818;49.790;9.958;2022-08-16T07:37:05;5.90;;;5.60;;
5591;SDS011;2818;49.790;9.958;2022-08-16T07:39:35;7.40;;;5.80;;
5591;SDS011;2818;49.790;9.958;2022-08-16T07:42:09;6.33;;;5.80;;
5591;SDS011;2818;49.790;9.958;2022-08-16T07:44:54;6.07;;;5.57;;
5591;SDS011;2818;49.790;9.958;2022-08-16T07:47:23;6.27;;;5.77;;
5591;SDS011;2818;49.790;9.958;2022-08-16T07:49:57;6.70;;;5.73;;
5591;SDS011;2818;49.790;9.958;2022-08-16T07:52:32;8.63;;;6.40;;
5591;SDS011;2818;49.790;9.958;2022-08-16T07:55:04;6.80;;;6.10;;
5591;SDS011;2818;49.790;9.958;2022-08-16T07:57:32;6.27;;;5.83;;
5591;SDS011;2818;49.790;9.958;2022-08-16T08:00:19;6.70;;;6.20;;
5591;SDS011;2818;49.790;9.958;2022-08-16T08:02:51;6.23;;;5.83;;
5591;SDS011;2818;49.790;9.958;2022-08-16T08:05:22;7.40;;;6.23;;
5591;SDS011;2818;49.790;9.958;2022-08-16T08:08:02;5.90;;;5.50;;
5591;SDS011;2818;49.790;9.958;2022-08-16T08:10:50;6.40;;;5.80;;
5591;SDS011;2818;49.790;9.958;2022-08-16T08:13:17;8.73;;;6.60;;
5591;SDS011;2818;49.790;9.958;2022-08-16T08:16:04;7.43;;;6.00;;
5591;SDS011;2818;49.790;9.958;2022-08-16T08:18:43;6.20;;;5.80;;
5591;SDS011;2818;49.790;9.958;2022-08-16T08:21:15;6.20;;;5.70;;
5591;SDS011;2818;49.790;9.958;2022-08-16T08:23:52;6.23;;;5.63;;
5591;SDS011;2818;49.790;9.958;2022-08-16T08:26:20;6.63;;;6.07;;
5591;SDS011;2818;49.790;9.958;2022-08-16T08:28:49;6.53;;;6.03;;
5591;SDS011;2818;49.790;9.958;2022-08-16T08:31:17;6.63;;;5.70;;
5591;SDS011;2818;49.790;9.958;2022-08-16T08:33:44;5.90;;;5.50;;
5591;SDS011;2818;49.790;9.958;2022-08-16T08:36:22;6.00;;;5.60;;
5591;SDS011;2818;49.790;9.958;2022-08-16T08:38:58;6.43;;;5.80;;
5591;SDS011;2818;49.790;9.958;2022-08-16T08:41:25;5.63;;;5.23;;
5591;SDS011;2818;49.790;9.958;2022-08-16T08:43:57;6.07;;;5.63;;
5591;SDS011;2818;49.790;9.958;2022-08-16T08:46:25;6.53;;;6.13;;
5591;SDS011;2818;49.790;9.958;2022-08-16T08:49:00;5.47;;;5.17;;
5591;SDS011;2818;49.790;9.958;2022-08-16T08:51:29;5.90;;;5.33;;
5591;SDS011;2818;49.790;9.958;2022-08-16T08:54:02;5.43;;;5.13;;
5591;SDS011;2818;49.790;9.958;2022-08-16T08:56:35;6.13;;;5.83;;
5591;SDS011;2818;49.790;9.958;2022-08-16T08:59:11;6.47;;;6.00;;
5591;SDS011;2818;49.790;9.958;2022-08-16T09:01:46;7.40;;;5.97;;
5591;SDS011;2818;49.790;9.958;2022-08-16T09:04:23;5.70;;;5.40;;
5591;SDS011;2818;49.790;9.958;2022-08-16T09:06:52;5.83;;;5.33;;
5591;SDS011;2818;49.790;9.958;2022-08-16T09:09:22;5.27;;;4.97;;
5591;SDS011;2818;49.790;9.958;2022-08-16T09:11:50;5.87;;;5.57;;
5591;SDS011;2818;49.790;9.958;2022-08-16T09:14:32;11.37;;;6.00;;
5591;SDS011;2818;49.790;9.958;2022-08-16T09:17:15;5.43;;;5.10;;
5591;SDS011;2818;49.790;9.958;2022-08-16T09:20:04;6.27;;;5.70;;
5591;SDS011;2818;49.790;9.958;2022-08-16T09:22:33;11.63;;;5.53;;
5591;SDS011;2818;49.790;9.958;2022-08-16T09:25:00;7.07;;;6.37;;
5591;SDS011;2818;49.790;9.958;2022-08-16T09:27:38;11.43;;;5.90;;
5591;SDS011;2818;49.790;9.958;2022-08-16T09:30:22;6.40;;;5.80;;
5591;SDS011;2818;49.790;9.958;2022-08-16T09:32:59;5.80;;;5.50;;
5591;SDS011;2818;49.790;9.958;2022-08-16T09:35:28;7.00;;;6.00;;
5591;SDS011;2818;49.790;9.958;2022-08-16T09:37:55;5.57;;;5.27;;
5591;SDS011;2818;49.790;9.958;2022-08-16T09:40:26;5.83;;;5.43;;
5591;SDS011;2818;49.790;9.958;2022-08-16T09:43:11;6.83;;;6.13;;
5591;SDS011;2818;49.790;9.958;2022-08-16T09:46:02;5.60;;;5.20;;
5591;SDS011;2818;49.790;9.958;2022-08-16T09:48:50;5.93;;;5.50;;
5591;SDS011;2818;49.790;9.958;2022-08-16T09:51:21;5.87;;;5.37;;
5591;SDS011;2818;49.790;9.958;2022-08-16T09:54:02;6.07;;;5.70;;
5591;SDS011;2818;49.790;9.958;2022-08-16T09:56:32;5.93;;;5.53;;
5591;SDS011;2818;49.790;9.958;2022-08-16T09:59:02;5.90;;;5.50;;
5591;SDS011;2818;49.790;9.958;2022-08-16T10:01:37;5.90;;;5.40;;
5591;SDS011;2818;49.790;9.958;2022-08-16T10:04:10;7.57;;;5.40;;
5591;SDS011;2818;49.790;9.958;2022-08-16T10:06:58;5.50;;;5.07;;
5591;SDS011;2818;49.790;9.958;2022-08-16T10:09:26;5.23;;;4.97;;
5591;SDS011;2818;49.790;9.958;2022-08-16T10:12:14;4.97;;;4.77;;
5591;SDS011;2818;49.790;9.958;2022-08-16T10:15:08;5.30;;;4.90;;
5591;SDS011;2818;49.790;9.958;2022-08-16T10:17:42;4.90;;;4.50;;
5591;SDS011;2818;49.790;9.958;2022-08-16T10:20:28;4.97;;;4.57;;
5591;SDS011;2818;49.790;9.958;2022-08-16T10:22:59;4.80;;;4.60;;
5591;SDS011;2818;49.790;9.958;2022-08-16T10:25:33;4.27;;;4.03;;
5591;SDS011;2818;49.790;9.958;2022-08-16T10:28:24;4.67;;;4.47;;
5591;SDS011;2818;49.790;9.958;2022-08-16T10:30:55;4.50;;;4.30;;
5591;SDS011;2818;49.790;9.958;2022-08-16T10:33:28;4.30;;;4.20;;
5591;SDS011;2818;49.790;9.958;2022-08-16T10:35:59;5.07;;;3.80;;
5591;SDS011;2818;49.790;9.958;2022-08-16T10:38:29;4.30;;;4.13;;
5591;SDS011;2818;49.790;9.958;2022-08-16T10:41:02;4.83;;;4.63;;
5591;SDS011;2818;49.790;9.958;2022-08-16T10:43:33;4.80;;;4.43;;
5591;SDS011;2818;49.790;9.958;2022-08-16T10:46:00;5.23;;;4.90;;
5591;SDS011;2818;49.790;9.958;2022-08-16T10:48:49;6.63;;;4.90;;
5591;SDS011;2818;49.790;9.958;2022-08-16T10:51:17;5.47;;;5.07;;
5591;SDS011;2818;49.790;9.958;2022-08-16T10:53:44;6.40;;;4.70;;
5591;SDS011;2818;49.790;9.958;2022-08-16T10:56:11;5.10;;;4.80;;
5591;SDS011;2818;49.790;9.958;2022-08-16T10:58:59;4.77;;;4.50;;
5591;SDS011;2818;49.790;9.958;2022-08-16T11:01:46;4.63;;;4.43;;
5591;SDS011;2818;49.790;9.958;2022-08-16T11:04:33;4.77;;;4.47;;
5591;SDS011;2818;49.790;9.958;2022-08-16T11:07:20;4.53;;;4.17;;
5591;SDS011;2818;49.790;9.958;2022-08-16T11:10:08;4.00;;;3.90;;
5591;SDS011;2818;49.790;9.958;2022-08-16T11:12:56;3.87;;;3.70;;
5591;SDS011;2818;49.790;9.958;2022-08-16T11:15:43;4.27;;;4.10;;
5591;SDS011;2818;49.790;9.958;2022-08-16T11:18:20;4.60;;;4.20;;
5591;SDS011;2818;49.790;9.958;2022-08-16T11:21:08;4.20;;;4.00;;
5591;SDS011;2818;49.790;9.958;2022-08-16T11:23:54;4.67;;;4.37;;
5591;SDS011;2818;49.790;9.958;2022-08-16T11:26:24;4.50;;;4.40;;
5591;SDS011;2818;49.790;9.958;2022-08-16T11:28:52;5.00;;;4.70;;
5591;SDS011;2818;49.790;9.958;2022-08-16T11:31:39;4.57;;;4.37;;
5591;SDS011;2818;49.790;9.958;2022-08-16T11:34:12;4.67;;;4.27;;
5591;SDS011;2818;49.790;9.958;2022-08-16T11:36:39;3.60;;;3.50;;
5591;SDS011;2818;49.790;9.958;2022-08-16T11:39:27;3.50;;;3.40;;
5591;SDS011;2818;49.790;9.958;2022-08-16T11:41:55;3.30;;;3.20;;
5591;SDS011;2818;49.790;9.958;2022-08-16T11:44:23;3.13;;;2.80;;
5591;SDS011;2818;49.790;9.958;2022-08-16T11:47:11;3.45;;;3.20;;
5591;SDS011;2818;49.790;9.958;2022-08-16T11:49:38;2.80;;;2.70;;
5591;SDS011;2818;49.790;9.958;2022-08-16T11:52:05;3.20;;;3.10;;
5591;SDS011;2818;49.790;9.958;2022-08-16T11:54:33;3.47;;;3.23;;
5591;SDS011;2818;49.790;9.958;2022-08-16T11:57:03;3.60;;;3.40;;
5591;SDS011;2818;49.790;9.958;2022-08-16T11:59:35;3.60;;;3.40;;
5591;SDS011;2818;49.790;9.958;2022-08-16T12:02:06;4.57;;;3.40;;
5591;SDS011;2818;49.790;9.958;2022-08-16T12:04:54;3.80;;;3.70;;
5591;SDS011;2818;49.790;9.958;2022-08-16T12:07:22;3.90;;;3.70;;
5591;SDS011;2818;49.790;9.958;2022-08-16T12:09:50;3.77;;;3.57;;
5591;SDS011;2818;49.790;9.958;2022-08-16T12:12:19;4.07;;;3.63;;
5591;SDS011;2818;49.790;9.958;2022-08-16T12:14:49;3.80;;;3.60;;
5591;SDS011;2818;49.790;9.958;2022-08-16T12:17:24;3.93;;;3.73;;
5591;SDS011;2818;49.790;9.958;2022-08-16T12:19:56;4.63;;;4.13;;
5591;SDS011;2818;49.790;9.958;2022-08-16T12:22:24;4.30;;;4.00;;
5591;SDS011;2818;49.790;9.958;2022-08-16T12:24:51;4.07;;;3.97;;
5591;SDS011;2818;49.790;9.958;2022-08-16T12:27:22;3.67;;;3.47;;
5591;SDS011;2818;49.790;9.958;2022-08-16T12:29:53;6.47;;;3.93;;
5591;SDS011;2818;49.790;9.958;2022-08-16T12:32:24;4.67;;;4.37;;
5591;SDS011;2818;49.790;9.958;2022-08-16T12:35:08;4.33;;;3.80;;
5591;SDS011;2818;49.790;9.958;2022-08-16T12:37:38;4.57;;;4.03;;
5591;SDS011;2818;49.790;9.958;2022-08-16T12:40:07;4.20;;;4.10;;
5591;SDS011;2818;49.790;9.958;2022-08-16T12:42:49;5.17;;;4.10;;
5591;SDS011;2818;49.790;9.958;2022-08-16T12:45:24;3.67;;;3.47;;
5591;SDS011;2818;49.790;9.958;2022-08-16T12:47:52;4.63;;;3.50;;
5591;SDS011;2818;49.790;9.958;2022-08-16T12:50:57;4.00;;;3.80;;
5591;SDS011;2818;49.790;9.958;2022-08-16T12:53:26;3.67;;;3.47;;
5591;SDS011;2818;49.790;9.958;2022-08-16T12:55:57;3.47;;;3.27;;
5591;SDS011;2818;49.790;9.958;2022-08-16T12:58:25;4.10;;;3.80;;
5591;SDS011;2818;49.790;9.958;2022-08-16T13:01:12;3.23;;;3.03;;
5591;SDS011;2818;49.790;9.958;2022-08-16T13:03:40;3.00;;;2.90;;
5591;SDS011;2818;49.790;9.958;2022-08-16T13:06:10;4.23;;;3.07;;
5591;SDS011;2818;49.790;9.958;2022-08-16T13:08:45;3.23;;;2.80;;
5591;SDS011;2818;49.790;9.958;2022-08-16T13:11:12;3.03;;;2.83;;
5591;SDS011;2818;49.790;9.958;2022-08-16T13:13:43;3.00;;;2.90;;
5591;SDS011;2818;49.790;9.958;2022-08-16T13:16:10;2.85;;;2.75;;
5591;SDS011;2818;49.790;9.958;2022-08-16T13:18:46;2.83;;;2.83;;
5591;SDS011;2818;49.790;9.958;2022-08-16T13:21:19;3.05;;;2.85;;
5591;SDS011;2818;49.790;9.958;2022-08-16T13:23:49;2.88;;;2.67;;
5591;SDS011;2818;49.790;9.958;2022-08-16T13:26:20;2.60;;;2.40;;
5591;SDS011;2818;49.790;9.958;2022-08-16T13:28:48;2.88;;;2.67;;
5591;SDS011;2818;49.790;9.958;2022-08-16T13:31:15;2.75;;;2.55;;
5591;SDS011;2818;49.790;9.958;2022-08-16T13:33:42;2.70;;;2.55;;
5591;SDS011;2818;49.790;9.958;2022-08-16T13:36:11;2.47;;;2.38;;
5591;SDS011;2818;49.790;9.958;2022-08-16T13:38:57;2.80;;;2.70;;
5591;SDS011;2818;49.790;9.958;2022-08-16T13:41:25;3.13;;;2.88;;
5591;SDS011;2818;49.790;9.958;2022-08-16T13:43:56;3.88;;;2.50;;
5591;SDS011;2818;49.790;9.958;2022-08-16T13:46:25;2.60;;;2.50;;
5591;SDS011;2818;49.790;9.958;2022-08-16T13:48:55;2.67;;;2.47;;
5591;SDS011;2818;49.790;9.958;2022-08-16T13:51:22;2.20;;;2.20;;
5591;SDS011;2818;49.790;9.958;2022-08-16T13:53:55;2.75;;;2.65;;
5591;SDS011;2818;49.790;9.958;2022-08-16T13:56:28;2.50;;;2.40;;
5591;SDS011;2818;49.790;9.958;2022-08-16T13:59:05;3.67;;;2.85;;
5591;SDS011;2818;49.790;9.958;2022-08-16T14:01:46;3.63;;;2.60;;
5591;SDS011;2818;49.790;9.958;2022-08-16T14:04:24;2.63;;;2.53;;
5591;SDS011;2818;49.790;9.958;2022-08-16T14:06:56;2.70;;;2.60;;
5591;SDS011;2818;49.790;9.958;2022-08-16T14:09:25;2.90;;;2.72;;
5591;SDS011;2818;49.790;9.958;2022-08-16T14:11:54;2.67;;;2.50;;
5591;SDS011;2818;49.790;9.958;2022-08-16T14:14:23;2.15;;;2.15;;
5591;SDS011;2818;49.790;9.958;2022-08-16T14:16:54;2.42;;;2.33;;
5591;SDS011;2818;49.790;9.958;2022-08-16T14:19:22;5.35;;;2.70;;
5591;SDS011;2818;49.790;9.958;2022-08-16T14:21:53;2.80;;;2.70;;
5591;SDS011;2818;49.790;9.958;2022-08-16T14:24:41;2.75;;;2.65;;
5591;SDS011;2818;49.790;9.958;2022-08-16T14:27:13;2.63;;;2.53;;
5591;SDS011;2818;49.790;9.958;2022-08-16T14:29:47;2.20;;;2.10;;
5591;SDS011;2818;49.790;9.958;2022-08-16T14:32:16;2.42;;;2.42;;
5591;SDS011;2818;49.790;9.958;2022-08-16T14:34:59;2.35;;;2.35;;
5591;SDS011;2818;49.790;9.958;2022-08-16T14:37:29;2.55;;;2.35;;
5591;SDS011;2818;49.790;9.958;2022-08-16T14:39:57;2.65;;;2.45;;
5591;SDS011;2818;49.790;9.958;2022-08-16T14:42:25;2.85;;;2.75;;
5591;SDS011;2818;49.790;9.958;2022-08-16T14:44:53;2.42;;;2.35;;
5591;SDS011;2818;49.790;9.958;2022-08-16T14:47:21;2.90;;;2.70;;
5591;SDS011;2818;49.790;9.958;2022-08-16T14:49:48;2.40;;;2.30;;
5591;SDS011;2818;49.790;9.958;2022-08-16T14:52:19;2.60;;;2.50;;
5591;SDS011;2818;49.790;9.958;2022-08-16T14:55:07;3.10;;;2.95;;
5591;SDS011;2818;49.790;9.958;2022-08-16T14:57:37;2.70;;;2.60;;
5591;SDS011;2818;49.790;9.958;2022-08-16T15:00:06;2.80;;;2.80;;
5591;SDS011;2818;49.790;9.958;2022-08-16T15:02:36;2.90;;;2.70;;
5591;SDS011;2818;49.790;9.958;2022-08-16T15:05:06;3.43;;;2.90;;
5591;SDS011;2818;49.790;9.958;2022-08-16T15:07:34;2.93;;;2.83;;
5591;SDS011;2818;49.790;9.958;2022-08-16T15:10:05;3.27;;;3.00;;
5591;SDS011;2818;49.790;9.958;2022-08-16T15:12:49;2.97;;;2.83;;
5591;SDS011;2818;49.790;9.958;2022-08-16T15:15:25;3.03;;;2.93;;
5591;SDS011;2818;49.790;9.958;2022-08-16T15:17:53;5.80;;;3.07;;
5591;SDS011;2818;49.790;9.958;2022-08-16T15:20:23;2.80;;;2.60;;
5591;SDS011;2818;49.790;9.958;2022-08-16T15:22:55;2.57;;;2.50;;
5591;SDS011;2818;49.790;9.958;2022-08-16T15:25:26;2.90;;;2.80;;
5591;SDS011;2818;49.790;9.958;2022-08-16T15:27:57;3.27;;;3.17;;
5591;SDS011;2818;49.790;9.958;2022-08-16T15:30:31;3.37;;;3.07;;
5591;SDS011;2818;49.790;9.958;2022-08-16T15:33:20;3.00;;;2.80;;
5591;SDS011;2818;49.790;9.958;2022-08-16T15:35:50;3.23;;;2.93;;
5591;SDS011;2818;49.790;9.958;2022-08-16T15:38:23;3.43;;;3.30;;
5591;SDS011;2818;49.790;9.958;2022-08-16T15:41:26;4.20;;;2.70;;
5591;SDS011;2818;49.790;9.958;2022-08-16T15:43:54;2.23;;;2.23;;
5591;SDS011;2818;49.790;9.958;2022-08-16T15:46:35;3.30;;;3.20;;
5591;SDS011;2818;49.790;9.958;2022-08-16T15:49:21;3.23;;;3.03;;
5591;SDS011;2818;49.790;9.958;2022-08-16T15:51:50;2.80;;;2.70;;
5591;SDS011;2818;49.790;9.958;2022-08-16T15:54:19;3.20;;;2.90;;
5591;SDS011;2818;49.790;9.958;2022-08-16T15:56:57;4.87;;;3.10;;
5591;SDS011;2818;49.790;9.958;2022-08-16T15:59:37;2.70;;;2.50;;
5591;SDS011;2818;49.790;9.958;2022-08-16T16:02:17;2.50;;;2.40;;
5591;SDS011;2818;49.790;9.958;2022-08-16T16:04:57;3.33;;;2.77;;